Flight Track Log - Related Links

Times and Time Zones

All times are in EDT time to prevent confusion due to time zone crossing. See the SIL3622 flight status page for this flight to view local times or setup timezone preferences in your user account.

Time Position Orientation Groundspeed Altitude Reporting Facility
EDT Latitude Longitude Course Direction KTS MPH feet Rate Location/Type
Mon 05:17:06 PM 33.4953 -90.9128 90° East 245 282 3,300  Level Memphis Center
Mon 05:18:06 PM 33.5122 -90.8531 71° East 208 239 4,600 1,350 Climbing Memphis Center
Mon 05:19:06 PM 33.5125 -90.7883 90° East 183 211 6,000 1,350 Climbing Memphis Center
Mon 05:20:06 PM 33.5169 -90.7236 85° East 183 211 7,300 1,200 Climbing Memphis Center
Mon 05:21:06 PM 33.5169 -90.6561 90° East 183 211 8,400 1,150 Climbing Memphis Center
Mon 05:22:00 PM 33.4833 -90.5519 90° East  Level FlightAware Approximate
Mon 05:22:06 PM 33.5172 -90.5889 90° East 193 222 9,600  Level Memphis Center
Mon 05:23:06 PM 33.5319 -90.5267 74° East 193 222 10,600 700 Climbing Memphis Center
Mon 05:24:06 PM 33.5653 -90.4594 59° Northeast 207 238 11,000 200 Climbing Memphis Center
Mon 05:25:06 PM 33.6008 -90.3847 60° Northeast 232 267 11,000  Level Memphis Center
Mon 05:26:06 PM 33.6342 -90.2997 65° Northeast 258 297 11,000  Level Memphis Center
Mon 05:27:06 PM 33.6675 -90.2150 65° Northeast 268 308 11,000  Level Memphis Center
Mon 05:28:06 PM 33.6986 -90.1325 66° East 268 308 11,000  Level Memphis Center
Mon 05:29:06 PM 33.7278 -90.0425 69° East 274 315 11,000  Level Memphis Center
Mon 05:30:06 PM 33.7589 -89.9575 66° East 274 315 11,000  Level Memphis Center
Mon 05:31:06 PM 33.7919 -89.8722 65° Northeast 274 315 11,000  Level Memphis Center
Mon 05:32:06 PM 33.8269 -89.7769 66° East 274 315 11,000  Level Memphis Center
Mon 05:33:06 PM 33.8600 -89.6919 65° Northeast 274 315 11,000  Level Memphis Center
Mon 05:34:06 PM 33.8928 -89.6064 65° Northeast 274 315 11,000 -350 Level Memphis Center
Mon 05:35:06 PM 33.9217 -89.5286 66° East 274 315 10,300 -850 Descending Memphis Center
Mon 05:36:06 PM 33.9503 -89.4483 67° East 274 315 9,300 -1,000 Descending Memphis Center
Mon 05:37:06 PM 33.9789 -89.3678 67° East 269 310 8,300 -950 Descending Memphis Center
Mon 05:38:06 PM 34.0264 -89.3197 40° Northeast 234 269 7,400 -850 Descending Memphis Center
Mon 05:39:06 PM 34.0719 -89.2839 33° Northeast 200 230 6,600 -800 Descending Memphis Center
Mon 05:40:06 PM 34.1114 -89.2483 37° Northeast 184 212 5,800 -750 Descending Memphis Center
Mon 05:41:06 PM 34.1506 -89.2050 42° Northeast 184 212 5,100 -450 Descending Memphis Center
Mon 05:42:06 PM 34.1919 -89.1694 35° Northeast 184 212 4,900 -300 Descending Memphis Center
Mon 05:43:06 PM 34.2417 -89.1261 36° Northeast 184 212 4,500 -700 Descending Memphis Center
Mon 05:44:06 PM 34.2956 -89.0775 37° Northeast 214 246 3,500 -750 Descending Memphis Center
Mon 05:45:06 PM 34.3431 -89.0339 37° Northeast 220 253 3,000 -300 Descending Memphis Center
Mon 05:46:06 PM 34.3528 -88.9811 77° East 179 206 2,900 -50 Descending Memphis Center
Mon 05:47:06 PM 34.3458 -88.9233 98° East 163 188 2,900 -250 Level Memphis Center
Mon 05:48:06 PM 34.3411 -88.8631 95° East 175 201 2,400 -350 Descending Memphis Center
Mon 05:49:06 PM 34.3342 -88.8053 98° East 175 201 2,200 -200 Descending Memphis Center

Login

Don't have an account? Register now (free) for customized features, flight alerts, and more!